createdAt,value
2022-11-29T00:00:19.158Z,99.16
2022-11-29T00:03:09.861Z,99.48
2022-11-29T00:08:37.094Z,98.88
2022-11-29T00:14:34.420Z,99.82
2022-11-29T00:17:24.139Z,99.52
2022-11-29T00:20:14.646Z,98.94
2022-11-29T00:25:43.931Z,98.70
2022-11-29T00:28:32.432Z,99.10
2022-11-29T00:31:22.913Z,98.82
2022-11-29T00:34:12.731Z,98.05
2022-11-29T00:39:43.554Z,98.01
2022-11-29T00:42:32.901Z,98.15
2022-11-29T00:48:08.374Z,98.48
2022-11-29T00:53:41.594Z,99.21
2022-11-29T00:59:17.606Z,99.04
2022-11-29T01:05:09.370Z,98.88
2022-11-29T01:10:48.453Z,98.82
2022-11-29T01:16:22.184Z,99.48
2022-11-29T01:21:59.365Z,98.98
2022-11-29T01:24:47.972Z,98.94
2022-11-29T01:30:25.429Z,99.14
2022-11-29T01:33:13.790Z,99.15
2022-11-29T01:38:46.137Z,98.84
2022-11-29T01:41:36.775Z,98.59
2022-11-29T01:45:03.955Z,97.64
2022-11-29T01:50:42.952Z,98.26
2022-11-29T01:53:32.726Z,98.07
2022-11-29T01:56:32.945Z,98.12
2022-11-29T01:59:23.243Z,98.92
2022-11-29T02:05:01.678Z,99.48
2022-11-29T02:10:40.250Z,98.68
2022-11-29T02:22:00.211Z,99.40
2022-11-29T02:28:46.478Z,98.16
2022-11-29T02:32:18.474Z,98.18
2022-11-29T02:38:09.650Z,99.41
2022-11-29T02:44:46.970Z,100.00
2022-11-29T02:47:41.230Z,100.00
2022-11-29T02:50:37.709Z,100.00
2022-11-29T02:53:30.968Z,100.00
2022-11-29T02:56:24.015Z,100.00
2022-11-29T02:59:16.061Z,100.00
2022-11-29T03:04:56.005Z,100.00
2022-11-29T03:10:38.438Z,100.00
2022-11-29T03:16:22.593Z,100.00
2022-11-29T03:24:55.852Z,100.00
2022-11-29T03:27:48.003Z,100.00
2022-11-29T03:33:23.730Z,100.00
2022-11-29T03:41:56.619Z,100.00
2022-11-29T03:47:29.378Z,100.00
2022-11-29T03:53:13.294Z,97.41
2022-11-29T03:56:04.791Z,97.36
2022-11-29T03:58:56.760Z,97.82
2022-11-29T04:02:19.629Z,97.93
2022-11-29T04:05:43.318Z,97.99
2022-11-29T04:09:06.981Z,97.34
2022-11-29T04:12:35.018Z,98.18
2022-11-29T04:19:12.551Z,99.04
2022-11-29T04:25:35.401Z,98.58
2022-11-29T04:31:28.115Z,98.71
2022-11-29T04:38:27.489Z,99.76
2022-11-29T04:47:39.297Z,100.00
2022-11-29T04:53:37.614Z,100.00
2022-11-29T04:59:27.661Z,100.00
2022-11-29T05:05:07.177Z,100.00
2022-11-29T05:08:01.578Z,99.03
2022-11-29T05:13:54.858Z,98.64
2022-11-29T05:16:52.362Z,98.41
2022-11-29T05:19:49.557Z,98.73
2022-11-29T05:22:41.490Z,99.63
2022-11-29T05:28:34.503Z,99.76
2022-11-29T05:34:41.364Z,99.44
2022-11-29T05:40:30.878Z,98.66
2022-11-29T05:43:49.551Z,98.70
2022-11-29T05:49:32.590Z,99.56
2022-11-29T05:52:24.933Z,99.15
2022-11-29T05:55:25.050Z,99.03
2022-11-29T06:11:51.031Z,100.00
2022-11-29T06:17:55.200Z,98.88
2022-11-29T06:20:55.467Z,98.98
2022-11-29T06:29:43.311Z,99.20
2022-11-29T06:35:40.485Z,99.11
2022-11-29T06:41:22.321Z,98.95
2022-11-29T06:44:12.971Z,97.83
2022-11-29T06:49:55.828Z,98.00
2022-11-29T06:55:30.104Z,97.56
2022-11-29T06:58:31.453Z,98.20
2022-11-29T07:01:23.538Z,97.11
2022-11-29T07:04:25.661Z,97.25
2022-11-29T07:09:59.444Z,97.92
2022-11-29T07:12:49.950Z,97.56
2022-11-29T07:15:39.173Z,97.86
2022-11-29T07:21:19.866Z,97.86
2022-11-29T07:24:11.912Z,97.33
2022-11-29T07:27:07.832Z,96.43
2022-11-29T07:30:05.791Z,96.36
2022-11-29T07:33:00.637Z,96.98
2022-11-29T07:38:34.713Z,96.37
2022-11-29T07:44:16.522Z,95.60
2022-11-29T07:49:44.859Z,96.25
2022-11-29T07:52:32.981Z,95.04
2022-11-29T07:55:22.966Z,95.23
2022-11-29T08:00:51.962Z,94.92
2022-11-29T08:06:27.882Z,94.42
2022-11-29T08:12:03.136Z,94.15
2022-11-29T08:17:39.034Z,94.96
2022-11-29T08:23:13.702Z,93.70
2022-11-29T08:26:03.165Z,92.48
2022-11-29T08:31:45.396Z,93.11
2022-11-29T08:37:17.860Z,92.46
2022-11-29T08:42:47.434Z,91.93
2022-11-29T08:48:23.057Z,90.47
2022-11-29T08:53:52.646Z,89.96
2022-11-29T08:59:29.023Z,89.99
2022-11-29T09:02:19.148Z,88.22
2022-11-29T09:07:51.881Z,89.88
2022-11-29T09:13:23.590Z,89.78
2022-11-29T09:19:02.040Z,88.87
2022-11-29T09:21:50.615Z,88.24
2022-11-29T09:24:39.200Z,88.20
2022-11-29T09:30:23.654Z,87.64
2022-11-29T09:36:00.156Z,87.08
2022-11-29T09:42:03.942Z,86.91
2022-11-29T09:45:00.523Z,86.89
2022-11-29T09:48:00.588Z,86.16
2022-11-29T09:50:51.651Z,86.61
2022-11-29T09:56:31.872Z,86.78
2022-11-29T10:02:21.127Z,86.38
2022-11-29T10:05:10.144Z,86.59
2022-11-29T10:10:49.844Z,84.84
2022-11-29T10:16:28.424Z,83.65
2022-11-29T10:25:00.658Z,84.20
2022-11-29T10:30:31.176Z,82.85
2022-11-29T10:36:04.159Z,83.80
2022-11-29T10:38:53.404Z,83.76
2022-11-29T10:44:29.150Z,84.02
2022-11-29T10:50:06.750Z,85.50
2022-11-29T10:55:45.644Z,84.46
2022-11-29T10:58:34.950Z,84.44
2022-11-29T11:04:17.110Z,82.38
2022-11-29T11:07:06.506Z,82.43
2022-11-29T11:13:03.639Z,80.03
2022-11-29T11:18:32.304Z,81.95
2022-11-29T11:24:06.481Z,81.82
2022-11-29T11:29:38.606Z,81.97
2022-11-29T11:35:23.033Z,83.40
2022-11-29T11:38:18.348Z,84.77
2022-11-29T11:41:12.472Z,85.85
2022-11-29T11:46:51.200Z,85.90
2022-11-29T11:52:28.846Z,82.53
2022-11-29T11:58:22.667Z,84.18
2022-11-29T12:01:21.194Z,83.93
2022-11-29T12:04:15.923Z,84.29
2022-11-29T12:13:02.740Z,82.10
2022-11-29T12:18:48.663Z,83.97
2022-11-29T12:24:45.771Z,82.36
2022-11-29T12:27:34.017Z,81.69
2022-11-29T12:33:33.786Z,83.59
2022-11-29T12:39:31.945Z,80.51
2022-11-29T12:45:18.632Z,79.57
2022-11-29T12:48:17.905Z,79.76
2022-11-29T13:00:10.689Z,78.10
2022-11-29T13:05:51.960Z,78.07
2022-11-29T13:14:43.374Z,81.11
2022-11-29T13:20:09.220Z,79.78
2022-11-29T13:23:02.185Z,79.69
2022-11-29T13:28:42.687Z,80.18
2022-11-29T13:31:32.318Z,79.48
2022-11-29T13:39:57.974Z,79.41
2022-11-29T13:49:01.408Z,84.08
2022-11-29T13:54:58.783Z,85.65
2022-11-29T14:00:39.107Z,84.39
2022-11-29T14:07:09.223Z,88.08
2022-11-29T14:10:09.438Z,89.01
2022-11-29T14:13:06.579Z,82.00
2022-11-29T14:16:03.087Z,84.23
2022-11-29T14:22:33.769Z,90.90
2022-11-29T14:28:33.003Z,93.23
2022-11-29T14:31:55.265Z,93.79
2022-11-29T14:34:50.219Z,94.12
2022-11-29T14:40:32.750Z,93.98
2022-11-29T14:46:27.736Z,95.35
2022-11-29T14:52:25.030Z,92.60
2022-11-29T14:55:32.693Z,92.90
2022-11-29T15:01:11.943Z,94.61
2022-11-29T15:06:53.071Z,92.38
2022-11-29T15:09:45.796Z,93.19
2022-11-29T15:12:40.415Z,93.02
2022-11-29T15:18:45.246Z,92.67
2022-11-29T15:24:40.298Z,93.18
2022-11-29T15:30:28.340Z,95.49
2022-11-29T15:36:11.008Z,93.32
2022-11-29T15:44:35.363Z,92.57
2022-11-29T15:47:28.832Z,92.15
2022-11-29T15:50:27.747Z,92.25
2022-11-29T15:56:18.113Z,94.01
2022-11-29T16:02:00.201Z,93.24
2022-11-29T16:07:35.942Z,94.11
2022-11-29T16:13:26.099Z,95.39
2022-11-29T16:22:03.672Z,96.69
2022-11-29T16:25:01.597Z,98.03
2022-11-29T16:33:28.134Z,100.00
2022-11-29T16:36:18.520Z,100.00
2022-11-29T16:39:10.240Z,100.00
2022-11-29T16:45:13.430Z,100.00
2022-11-29T16:51:20.632Z,100.00
2022-11-29T16:54:25.717Z,100.00
2022-11-29T16:57:13.930Z,100.00
2022-11-29T17:02:43.911Z,100.00
2022-11-29T17:05:32.261Z,100.00
2022-11-29T17:08:20.957Z,99.71
2022-11-29T17:13:56.153Z,100.00
2022-11-29T17:19:25.993Z,100.00
2022-11-29T17:24:59.059Z,100.00
2022-11-29T17:30:31.040Z,100.00
2022-11-29T17:36:07.364Z,100.00
2022-11-29T17:41:44.068Z,100.00
2022-11-29T17:44:33.777Z,100.00
2022-11-29T17:47:22.271Z,100.00
2022-11-29T17:52:52.516Z,100.00
2022-11-29T17:55:41.935Z,100.00
2022-11-29T18:01:40.989Z,100.00
2022-11-29T18:04:29.445Z,100.00
2022-11-29T18:10:03.976Z,100.00
2022-11-29T18:12:53.194Z,100.00
2022-11-29T18:15:43.769Z,100.00
2022-11-29T18:18:35.832Z,100.00
2022-11-29T18:24:09.368Z,100.00
2022-11-29T18:29:56.155Z,100.00
2022-11-29T18:32:46.372Z,100.00
2022-11-29T18:38:16.415Z,100.00
2022-11-29T18:44:02.717Z,100.00
2022-11-29T18:49:38.630Z,100.00
2022-11-29T18:52:26.794Z,100.00
2022-11-29T18:58:03.903Z,100.00
2022-11-29T19:03:36.233Z,100.00
2022-11-29T19:09:26.506Z,100.00
2022-11-29T19:12:14.811Z,100.00
2022-11-29T19:21:59.798Z,100.00
2022-11-29T19:27:28.708Z,100.00
2022-11-29T19:33:16.277Z,100.00
2022-11-29T19:41:31.478Z,100.00
2022-11-29T19:47:06.562Z,100.00
2022-11-29T19:52:47.020Z,100.00
2022-11-29T20:01:11.863Z,100.00
2022-11-29T20:06:48.847Z,100.00
2022-11-29T20:12:22.347Z,100.00
2022-11-29T20:17:55.800Z,100.00
2022-11-29T20:23:34.779Z,100.00
2022-11-29T20:29:04.464Z,100.00
2022-11-29T20:34:36.223Z,100.00
2022-11-29T20:43:39.901Z,100.00
2022-11-29T20:46:29.997Z,100.00
2022-11-29T20:54:47.278Z,100.00
2022-11-29T21:00:24.646Z,100.00
2022-11-29T21:06:10.817Z,100.00
2022-11-29T21:08:58.730Z,100.00
2022-11-29T21:11:48.038Z,100.00
2022-11-29T21:17:47.971Z,100.00
2022-11-29T21:27:28.232Z,100.00
2022-11-29T21:33:15.351Z,100.00
2022-11-29T21:39:05.191Z,99.33
2022-11-29T21:44:33.019Z,100.00
2022-11-29T21:50:10.357Z,100.00
2022-11-29T21:56:01.257Z,100.00
2022-11-29T21:58:50.306Z,99.12
2022-11-29T22:01:38.784Z,100.00
2022-11-29T22:07:12.584Z,100.00
2022-11-29T22:10:04.324Z,100.00
2022-11-29T22:12:58.112Z,100.00
2022-11-29T22:18:43.202Z,100.00
2022-11-29T22:24:20.745Z,100.00
2022-11-29T22:27:11.876Z,100.00
2022-11-29T22:30:00.570Z,100.00
2022-11-29T22:35:38.174Z,100.00
2022-11-29T22:38:26.761Z,100.00
2022-11-29T22:46:51.935Z,100.00
2022-11-29T22:52:23.220Z,100.00
2022-11-29T22:57:58.110Z,100.00
2022-11-29T23:03:29.357Z,100.00
2022-11-29T23:06:19.609Z,100.00
2022-11-29T23:11:57.568Z,100.00
2022-11-29T23:14:55.794Z,100.00
2022-11-29T23:20:24.176Z,100.00
2022-11-29T23:23:14.430Z,100.00
2022-11-29T23:26:02.907Z,100.00
2022-11-29T23:28:52.560Z,100.00
2022-11-29T23:31:41.352Z,100.00
2022-11-29T23:34:29.945Z,100.00
2022-11-29T23:37:18.778Z,100.00
2022-11-29T23:42:53.535Z,100.00
2022-11-29T23:45:42.062Z,100.00
2022-11-29T23:51:22.661Z,100.00
2022-11-29T23:56:51.691Z,100.00
2022-11-29T23:59:42.988Z,100.00
